Airfield :
LOGIN :

Register | Disclaimer

   EN    FR    IT 

 










Legend :    VFR   Marginal VFR   IFR   Intensive IFR   Very Intensive IFR
Visi :
Ceiling :
>= 8 km
>= 3000ft
5 to 8 km
1000 to 3000 ft
1500m to 5 km
500 to 1000 ft
800 to 1500m
200 to 500 ft
< 800m
< 200 ft
Symbols :   Thunderstorms  Fog  Heavy snow  Heavy precipitations  Wind > 20 kt
SIGMETs :     Misc.  Thunderstorms  Icing  Turbulence  Mountain Waves  Volcanic Ashes






- Airport Elevation : 86 ft
- IATA code : HAU


ENHD - Haugesund

CURRENT METAR :
  • 281220Z AUTO 22005KT 9999 BKN018/// 15/12 Q1011

EXPIRED METARs :
  • 281150Z AUTO 22005KT 9999 OVC018/// 15/13 Q1011
  • 281120Z AUTO 22005KT 9999 OVC018/// 15/13 Q1011
  • 281050Z AUTO 22005KT 9999 FEW013/// OVC019/// 15/12 Q1012
  • 281020Z AUTO 22003KT 9999 FEW012/// 16/13 Q1012
  • 280950Z AUTO 19003KT 160V240 9999 FEW009/// 15/13 Q1012

TAF TAF ENHD
Valid from the 28 at 12:00 until the 28 at 19:00 UTC


281100Z 2812/2819 20003KT 9999 SCT015



MET'MAP, your aeronautical weather chart ! - Copyright ORBIFLY December 2007 - Disclaimer

ORBIFLY MET'MAP TEAM :

Programming & Development : Alexandra Zaïnal
Concept & original design : Baudouin d'Aumeries
Assistance for programming : Marc-Olivier Méhu
Technical & hardware support : Manuel Goepfert

Contact : metmap@orbifly.com




SOURCES & CREDITS :

   NOAA